Mount Carmel, IL

12:33 PM CDT on October 19, 2017 (GMT -0500)
Mount Carmel Municipal

Weather History for KAJG - February, 2012

Change the Weather History Date:

Monday, February 20, 2012

  Actual Average (KLWV) Record (KLWV)
Temperature  
Mean Temperature 36 °F -  
Max Temperature 50 °F 43 °F 74 °F (2016)
Min Temperature 23 °F 27 °F -13 °F (2015)
Degree Days  
Heating Degree Days 28    
Moisture  
Dew Point 27 °F    
Average Humidity 71    
Maximum Humidity 93    
Minimum Humidity 40    
Precipitation  
Precipitation 0.00 in - - ()
Sea Level Pressure  
Sea Level Pressure 30.20 in    
Wind  
Wind Speed 6 mph (ESE)    
Max Wind Speed 16 mph    
Max Gust Speed 17 mph    
Visibility 10 miles    
Events      
Averages and records for this station are not official NWS values.
T = Trace of Precipitation, MM = Missing Value Source: NWS Daily Summary

Daily Weather History Graph

Daily Weather History Graph

Search for Another Location

Airport or City:

Trip Planner

Search our weather history database for the weather conditions in past years. The results will help you decide how hot, cold, wet, or windy it might be!

Date:

Astronomy

Feb. 20, 2012 Rise Set
Actual Time 6:36 AM CST 5:33 PM CST
Civil Twilight 6:09 AM CST 6:00 PM CST
Nautical Twilight 5:38 AM CST 6:31 PM CST
Astronomical Twilight 5:07 AM CST 7:02 PM CST
Moon 5:32 AM CST (2/20) 4:38 PM CST (2/20)
Length of Visible Light 11h 51m
Length of Day
10h 57m
Waning Crescent, 1% of the Moon is Illuminated
Feb 20
Waning Crescent
Feb 21
New
Feb 29
First Quarter
Mar 8
Full
Mar 14
Last Quarter

Hourly Weather History & Observations

Time (CST) Temp. Windchill Dew Point Humidity Pressure Visibility Wind Dir Wind Speed Gust Speed Precip Events Conditions
12:15 AM 32.0 °F 25.6 °F 24.8 °F 75% 30.17 in 10.0 mi NE 6.9 mph - N/A   Clear
12:35 AM 30.2 °F 24.3 °F 24.8 °F 80% 30.17 in 10.0 mi NE 5.8 mph - N/A   Clear
1:15 AM 30.2 °F 23.4 °F 24.8 °F 80% 30.17 in 10.0 mi ENE 6.9 mph - N/A   Clear
1:35 AM 30.2 °F 23.4 °F 24.8 °F 80% 30.17 in 10.0 mi East 6.9 mph - N/A   Clear
1:55 AM 28.4 °F 21.2 °F 24.8 °F 86% 30.18 in 10.0 mi ENE 6.9 mph - N/A   Clear
2:15 AM 30.2 °F 26.7 °F 24.8 °F 80% 30.20 in 10.0 mi East 3.5 mph - N/A   Clear
2:35 AM 28.4 °F 24.6 °F 24.8 °F 86% 30.21 in 10.0 mi East 3.5 mph - N/A   Clear
2:55 AM 28.4 °F - 24.8 °F 86% 30.23 in 10.0 mi Calm Calm - N/A   Clear
3:15 AM 26.6 °F - 23.0 °F 86% 30.25 in 10.0 mi Calm Calm - N/A   Clear
3:55 AM 28.4 °F 24.6 °F 24.8 °F 86% 30.26 in 10.0 mi NNW 3.5 mph - N/A   Clear
4:15 AM 26.6 °F 22.6 °F 23.0 °F 86% 30.27 in 10.0 mi NNW 3.5 mph - N/A   Clear
4:35 AM 26.6 °F 22.6 °F 23.0 °F 86% 30.29 in 10.0 mi WNW 3.5 mph - N/A   Clear
4:55 AM 24.8 °F - 23.0 °F 93% 30.29 in 7.0 mi Calm Calm - N/A   Clear
5:15 AM 26.6 °F - 24.8 °F 93% 30.30 in 7.0 mi Calm Calm - N/A   Clear
5:35 AM 24.8 °F - 23.0 °F 93% 30.30 in 10.0 mi Calm Calm - N/A   Clear
5:55 AM 24.8 °F - 23.0 °F 93% 30.30 in 7.0 mi Calm Calm - N/A   Clear
6:15 AM 24.8 °F 20.5 °F 23.0 °F 93% 30.29 in 7.0 mi NE 3.5 mph - N/A   Clear
6:35 AM 23.0 °F 18.4 °F 21.2 °F 93% 30.30 in 10.0 mi NE 3.5 mph - N/A   Clear
6:55 AM 23.0 °F 18.4 °F 21.2 °F 93% 30.30 in 7.0 mi NE 3.5 mph - N/A   Clear
7:15 AM 24.8 °F 16.9 °F 23.0 °F 93% 30.29 in 7.0 mi ENE 6.9 mph - N/A   Clear
7:35 AM 30.2 °F 24.3 °F 28.4 °F 93% 30.30 in 7.0 mi ENE 5.8 mph - N/A   Clear
7:55 AM 30.2 °F 21.9 °F 28.4 °F 93% 30.28 in 10.0 mi East 9.2 mph - N/A   Clear
8:15 AM 32.0 °F 23.6 °F 28.4 °F 87% 30.28 in 10.0 mi East 10.4 mph - N/A   Clear
8:35 AM 32.0 °F 22.5 °F 28.4 °F 87% 30.28 in 10.0 mi East 12.7 mph - N/A   Clear
8:55 AM 33.8 °F 24.8 °F 28.4 °F 81% 30.28 in 10.0 mi ESE 12.7 mph - N/A   Clear
9:15 AM 33.8 °F 24.8 °F 28.4 °F 81% 30.29 in 10.0 mi East 12.7 mph - N/A   Clear
9:35 AM 35.6 °F 28.0 °F 28.4 °F 75% 30.28 in 10.0 mi East 10.4 mph - N/A   Clear
9:55 AM 35.6 °F 29.2 °F 28.4 °F 75% 30.29 in 10.0 mi ESE 8.1 mph - N/A   Clear
10:15 AM 37.4 °F 32.8 °F 28.4 °F 70% 30.29 in 10.0 mi SE 5.8 mph - N/A   Clear
10:35 AM 37.4 °F 33.8 °F 28.4 °F 70% 30.28 in 10.0 mi SSE 4.6 mph - N/A   Clear
10:55 AM 39.2 °F 37.0 °F 28.4 °F 65% 30.28 in 10.0 mi East 3.5 mph - N/A   Clear
11:15 AM 41.0 °F 38.0 °F 28.4 °F 61% 30.29 in 10.0 mi SSE 4.6 mph - N/A   Clear
11:35 AM 41.0 °F 35.8 °F 26.6 °F 57% 30.28 in 10.0 mi SSE 8.1 mph - N/A   Clear
11:55 AM 42.8 °F 39.3 °F 26.6 °F 53% 30.26 in 10.0 mi ESE 5.8 mph - N/A   Clear
12:15 PM 42.8 °F 38.6 °F 26.6 °F 53% 30.25 in 10.0 mi SE 6.9 mph 10.4 mph N/A   Clear
12:35 PM 44.6 °F 39.7 °F 26.6 °F 49% 30.24 in 10.0 mi SE 9.2 mph - N/A   Clear
12:55 PM 44.6 °F 40.2 °F 26.6 °F 49% 30.23 in 10.0 mi SE 8.1 mph - N/A   Clear
1:15 PM 46.4 °F 42.4 °F 28.4 °F 50% 30.22 in 10.0 mi South 8.1 mph - N/A   Clear
1:35 PM 44.6 °F 40.2 °F 28.4 °F 53% 30.21 in 10.0 mi SE 8.1 mph - N/A   Clear
1:55 PM 46.4 °F 43.5 °F 28.4 °F 50% 30.19 in 10.0 mi SSE 5.8 mph 10.4 mph N/A   Clear
2:15 PM 48.2 °F - 28.4 °F 46% 30.18 in 10.0 mi SE 9.2 mph - N/A   Clear
2:35 PM 50.0 °F - 26.6 °F 40% 30.17 in 10.0 mi SSE 10.4 mph - N/A   Clear
3:35 PM 50.0 °F - 26.6 °F 40% 30.12 in 10.0 mi SE 15.0 mph - N/A   Clear
3:55 PM 50.0 °F - 26.6 °F 40% 30.11 in 10.0 mi SE 15.0 mph - N/A   Clear
4:15 PM 50.0 °F - 26.6 °F 40% 30.10 in 10.0 mi SSE 15.0 mph - N/A   Clear
4:35 PM 48.2 °F - 26.6 °F 43% 30.09 in 10.0 mi SE 12.7 mph 17.3 mph N/A   Clear
4:55 PM 48.2 °F - 28.4 °F 46% 30.09 in 10.0 mi SE 11.5 mph - N/A   Clear
5:15 PM 46.4 °F 41.5 °F 28.4 °F 50% 30.09 in 10.0 mi SE 10.4 mph - N/A   Clear
5:55 PM 41.0 °F 35.2 °F 28.4 °F 61% 30.08 in 10.0 mi SE 9.2 mph - N/A   Clear
6:15 PM 37.4 °F 33.8 °F 28.4 °F 70% 30.08 in 10.0 mi ESE 4.6 mph - N/A   Clear
6:35 PM 37.4 °F 32.8 °F 28.4 °F 70% 30.09 in 10.0 mi SE 5.8 mph - N/A   Clear
6:55 PM 37.4 °F 32.8 °F 28.4 °F 70% 30.09 in 10.0 mi ESE 5.8 mph - N/A   Clear
7:15 PM 37.4 °F 30.8 °F 28.4 °F 70% 30.06 in 10.0 mi SE 9.2 mph - N/A   Clear
7:35 PM 39.2 °F 33.0 °F 30.2 °F 70% 30.04 in 10.0 mi ESE 9.2 mph - N/A   Clear
7:55 PM 39.2 °F 34.2 °F 30.2 °F 70% 30.04 in 10.0 mi SE 6.9 mph - N/A   Clear
8:15 PM 39.2 °F 33.6 °F 28.4 °F 65% 30.03 in 10.0 mi ESE 8.1 mph - N/A   Clear
8:35 PM 39.2 °F 34.2 °F 28.4 °F 65% 30.02 in 10.0 mi SE 6.9 mph - N/A   Clear
8:55 PM 41.0 °F 34.7 °F 28.4 °F 61% 30.00 in 10.0 mi SE 10.4 mph - N/A   Clear
9:15 PM 41.0 °F 32.8 °F 28.4 °F 61% 29.97 in 10.0 mi SE 16.1 mph - N/A   Clear
9:35 PM 42.8 °F 35.4 °F 28.4 °F 57% 29.97 in 10.0 mi SE 15.0 mph 19.6 mph N/A   Clear
9:55 PM 42.8 °F 36.2 °F 28.4 °F 57% 29.99 in 10.0 mi SSE 12.7 mph - N/A   Clear
10:15 PM 41.0 °F 35.8 °F 28.4 °F 61% 30.00 in 10.0 mi SE 8.1 mph - N/A   Clear
10:35 PM 39.2 °F 33.6 °F 30.2 °F 70% 29.99 in 10.0 mi SE 8.1 mph - N/A   Clear
10:55 PM 39.2 °F 34.2 °F 28.4 °F 65% 29.98 in 10.0 mi SE 6.9 mph - N/A   Clear
11:15 PM 41.0 °F 33.9 °F 28.4 °F 61% 29.96 in 10.0 mi SE 12.7 mph - N/A   Clear
11:35 PM 41.0 °F 33.9 °F 28.4 °F 61% 29.94 in 10.0 mi SSE 12.7 mph - N/A   Clear
11:55 PM 41.0 °F 33.5 °F 28.4 °F 61% 29.92 in 10.0 mi SE 13.8 mph - N/A   Scattered Clouds